sensor_id;sensor_type;location;lat;lon;timestamp;P1;durP1;ratioP1;P2;durP2;ratioP2
8893;SDS011;4483;48.622;9.230;2024-02-16T00:00:57;4.27;;;2.07;;
8893;SDS011;4483;48.622;9.230;2024-02-16T00:03:25;1.93;;;1.83;;
8893;SDS011;4483;48.622;9.230;2024-02-16T00:05:51;7.63;;;2.40;;
8893;SDS011;4483;48.622;9.230;2024-02-16T00:08:18;4.43;;;2.00;;
8893;SDS011;4483;48.622;9.230;2024-02-16T00:10:46;2.63;;;1.87;;
8893;SDS011;4483;48.622;9.230;2024-02-16T00:13:12;3.00;;;2.20;;
8893;SDS011;4483;48.622;9.230;2024-02-16T00:15:41;2.50;;;2.30;;
8893;SDS011;4483;48.622;9.230;2024-02-16T00:18:07;3.13;;;2.50;;
8893;SDS011;4483;48.622;9.230;2024-02-16T00:20:34;4.67;;;2.40;;
8893;SDS011;4483;48.622;9.230;2024-02-16T00:23:00;4.07;;;2.40;;
8893;SDS011;4483;48.622;9.230;2024-02-16T00:25:27;2.50;;;2.30;;
8893;SDS011;4483;48.622;9.230;2024-02-16T00:27:54;4.03;;;2.93;;
8893;SDS011;4483;48.622;9.230;2024-02-16T00:30:20;3.00;;;2.53;;
8893;SDS011;4483;48.622;9.230;2024-02-16T00:32:49;6.87;;;2.80;;
8893;SDS011;4483;48.622;9.230;2024-02-16T00:35:16;8.20;;;2.60;;
8893;SDS011;4483;48.622;9.230;2024-02-16T00:37:44;8.27;;;2.80;;
8893;SDS011;4483;48.622;9.230;2024-02-16T00:40:12;7.10;;;2.70;;
8893;SDS011;4483;48.622;9.230;2024-02-16T00:42:38;2.93;;;2.63;;
8893;SDS011;4483;48.622;9.230;2024-02-16T00:45:05;5.63;;;2.43;;
8893;SDS011;4483;48.622;9.230;2024-02-16T00:47:34;2.83;;;2.50;;
8893;SDS011;4483;48.622;9.230;2024-02-16T00:50:02;3.00;;;2.23;;
8893;SDS011;4483;48.622;9.230;2024-02-16T00:52:33;4.50;;;2.30;;
8893;SDS011;4483;48.622;9.230;2024-02-16T00:55:00;3.47;;;2.93;;
8893;SDS011;4483;48.622;9.230;2024-02-16T00:57:26;4.33;;;2.57;;
8893;SDS011;4483;48.622;9.230;2024-02-16T00:59:53;6.13;;;2.63;;
8893;SDS011;4483;48.622;9.230;2024-02-16T01:02:19;6.43;;;2.43;;
8893;SDS011;4483;48.622;9.230;2024-02-16T01:04:47;4.27;;;2.50;;
8893;SDS011;4483;48.622;9.230;2024-02-16T01:07:16;3.47;;;2.50;;
8893;SDS011;4483;48.622;9.230;2024-02-16T01:09:43;2.60;;;2.40;;
8893;SDS011;4483;48.622;9.230;2024-02-16T01:12:10;4.17;;;2.50;;
8893;SDS011;4483;48.622;9.230;2024-02-16T01:14:36;2.97;;;2.37;;
8893;SDS011;4483;48.622;9.230;2024-02-16T01:17:03;8.77;;;2.77;;
8893;SDS011;4483;48.622;9.230;2024-02-16T01:19:30;4.43;;;2.47;;
8893;SDS011;4483;48.622;9.230;2024-02-16T01:21:58;2.93;;;2.63;;
8893;SDS011;4483;48.622;9.230;2024-02-16T01:24:27;5.70;;;2.50;;
8893;SDS011;4483;48.622;9.230;2024-02-16T01:26:53;3.77;;;2.20;;
8893;SDS011;4483;48.622;9.230;2024-02-16T01:29:20;5.03;;;2.73;;
8893;SDS011;4483;48.622;9.230;2024-02-16T01:31:46;5.43;;;2.97;;
8893;SDS011;4483;48.622;9.230;2024-02-16T01:34:13;5.77;;;2.67;;
8893;SDS011;4483;48.622;9.230;2024-02-16T01:36:40;2.80;;;2.10;;
8893;SDS011;4483;48.622;9.230;2024-02-16T01:39:06;8.97;;;3.17;;
8893;SDS011;4483;48.622;9.230;2024-02-16T01:41:37;2.53;;;2.20;;
8893;SDS011;4483;48.622;9.230;2024-02-16T01:44:04;4.03;;;2.17;;
8893;SDS011;4483;48.622;9.230;2024-02-16T01:46:31;6.13;;;2.93;;
8893;SDS011;4483;48.622;9.230;2024-02-16T01:48:58;4.47;;;2.57;;
8893;SDS011;4483;48.622;9.230;2024-02-16T01:51:24;6.17;;;2.60;;
8893;SDS011;4483;48.622;9.230;2024-02-16T01:53:52;3.47;;;2.60;;
8893;SDS011;4483;48.622;9.230;2024-02-16T01:56:19;2.90;;;2.60;;
8893;SDS011;4483;48.622;9.230;2024-02-16T01:58:48;2.60;;;2.40;;
8893;SDS011;4483;48.622;9.230;2024-02-16T02:01:15;3.07;;;2.10;;
8893;SDS011;4483;48.622;9.230;2024-02-16T02:03:41;5.93;;;2.47;;
8893;SDS011;4483;48.622;9.230;2024-02-16T02:06:08;2.60;;;2.40;;
8893;SDS011;4483;48.622;9.230;2024-02-16T02:08:35;2.93;;;2.37;;
8893;SDS011;4483;48.622;9.230;2024-02-16T02:11:01;3.03;;;2.53;;
8893;SDS011;4483;48.622;9.230;2024-02-16T02:13:28;5.53;;;2.30;;
8893;SDS011;4483;48.622;9.230;2024-02-16T02:15:56;3.07;;;2.70;;
8893;SDS011;4483;48.622;9.230;2024-02-16T02:18:24;3.03;;;2.60;;
8893;SDS011;4483;48.622;9.230;2024-02-16T02:20:51;3.00;;;2.80;;
8893;SDS011;4483;48.622;9.230;2024-02-16T02:23:20;3.90;;;2.27;;
8893;SDS011;4483;48.622;9.230;2024-02-16T02:25:47;4.63;;;2.50;;
8893;SDS011;4483;48.622;9.230;2024-02-16T02:28:14;2.37;;;2.17;;
8893;SDS011;4483;48.622;9.230;2024-02-16T02:30:40;3.97;;;2.70;;
8893;SDS011;4483;48.622;9.230;2024-02-16T02:33:07;6.03;;;2.77;;
8893;SDS011;4483;48.622;9.230;2024-02-16T02:35:34;2.57;;;2.20;;
8893;SDS011;4483;48.622;9.230;2024-02-16T02:38:00;4.37;;;2.10;;
8893;SDS011;4483;48.622;9.230;2024-02-16T02:40:29;2.60;;;2.10;;
8893;SDS011;4483;48.622;9.230;2024-02-16T02:42:55;4.03;;;2.40;;
8893;SDS011;4483;48.622;9.230;2024-02-16T02:45:22;3.17;;;2.33;;
8893;SDS011;4483;48.622;9.230;2024-02-16T02:47:49;3.80;;;2.80;;
8893;SDS011;4483;48.622;9.230;2024-02-16T02:50:15;4.70;;;2.20;;
8893;SDS011;4483;48.622;9.230;2024-02-16T02:52:42;2.53;;;2.33;;
8893;SDS011;4483;48.622;9.230;2024-02-16T02:55:10;7.47;;;2.40;;
8893;SDS011;4483;48.622;9.230;2024-02-16T02:57:38;3.00;;;2.50;;
8893;SDS011;4483;48.622;9.230;2024-02-16T03:00:05;3.20;;;2.53;;
8893;SDS011;4483;48.622;9.230;2024-02-16T03:02:35;2.50;;;2.30;;
8893;SDS011;4483;48.622;9.230;2024-02-16T03:05:03;2.30;;;2.10;;
8893;SDS011;4483;48.622;9.230;2024-02-16T03:07:30;3.70;;;2.00;;
8893;SDS011;4483;48.622;9.230;2024-02-16T03:09:56;1.90;;;1.80;;
8893;SDS011;4483;48.622;9.230;2024-02-16T03:12:24;2.70;;;2.20;;
8893;SDS011;4483;48.622;9.230;2024-02-16T03:14:52;2.60;;;2.27;;
8893;SDS011;4483;48.622;9.230;2024-02-16T03:17:18;5.07;;;2.30;;
8893;SDS011;4483;48.622;9.230;2024-02-16T03:19:45;5.67;;;2.40;;
8893;SDS011;4483;48.622;9.230;2024-02-16T03:22:12;4.10;;;2.50;;
8893;SDS011;4483;48.622;9.230;2024-02-16T03:24:38;2.80;;;2.10;;
8893;SDS011;4483;48.622;9.230;2024-02-16T03:27:05;3.40;;;2.33;;
8893;SDS011;4483;48.622;9.230;2024-02-16T03:29:32;2.53;;;2.20;;
8893;SDS011;4483;48.622;9.230;2024-02-16T03:32:00;2.20;;;2.00;;
8893;SDS011;4483;48.622;9.230;2024-02-16T03:34:26;4.30;;;2.57;;
8893;SDS011;4483;48.622;9.230;2024-02-16T03:36:53;5.37;;;2.37;;
8893;SDS011;4483;48.622;9.230;2024-02-16T03:39:20;3.00;;;2.23;;
8893;SDS011;4483;48.622;9.230;2024-02-16T03:41:47;3.53;;;2.47;;
8893;SDS011;4483;48.622;9.230;2024-02-16T03:44:14;3.80;;;2.20;;
8893;SDS011;4483;48.622;9.230;2024-02-16T03:46:41;2.63;;;2.20;;
8893;SDS011;4483;48.622;9.230;2024-02-16T03:49:09;4.23;;;2.50;;
8893;SDS011;4483;48.622;9.230;2024-02-16T03:51:36;4.27;;;2.47;;
8893;SDS011;4483;48.622;9.230;2024-02-16T03:54:03;3.93;;;2.13;;
8893;SDS011;4483;48.622;9.230;2024-02-16T03:56:30;2.70;;;2.17;;
8893;SDS011;4483;48.622;9.230;2024-02-16T03:58:56;2.70;;;2.20;;
8893;SDS011;4483;48.622;9.230;2024-02-16T04:01:23;2.63;;;2.10;;
8893;SDS011;4483;48.622;9.230;2024-02-16T04:03:50;3.73;;;2.37;;
8893;SDS011;4483;48.622;9.230;2024-02-16T04:06:19;3.13;;;2.60;;
8893;SDS011;4483;48.622;9.230;2024-02-16T04:08:46;4.30;;;2.67;;
8893;SDS011;4483;48.622;9.230;2024-02-16T04:11:13;5.80;;;2.40;;
8893;SDS011;4483;48.622;9.230;2024-02-16T04:13:41;3.13;;;2.30;;
8893;SDS011;4483;48.622;9.230;2024-02-16T04:16:07;3.97;;;2.30;;
8893;SDS011;4483;48.622;9.230;2024-02-16T04:18:34;2.30;;;2.10;;
8893;SDS011;4483;48.622;9.230;2024-02-16T04:21:00;2.63;;;2.33;;
8893;SDS011;4483;48.622;9.230;2024-02-16T04:23:28;2.93;;;2.60;;
8893;SDS011;4483;48.622;9.230;2024-02-16T04:25:55;2.93;;;2.30;;
8893;SDS011;4483;48.622;9.230;2024-02-16T04:28:22;2.47;;;2.27;;
8893;SDS011;4483;48.622;9.230;2024-02-16T04:30:49;3.60;;;2.40;;
8893;SDS011;4483;48.622;9.230;2024-02-16T04:33:15;3.03;;;2.37;;
8893;SDS011;4483;48.622;9.230;2024-02-16T04:35:42;2.20;;;2.00;;
8893;SDS011;4483;48.622;9.230;2024-02-16T04:38:11;3.57;;;2.03;;
8893;SDS011;4483;48.622;9.230;2024-02-16T04:40:39;2.43;;;2.23;;
8893;SDS011;4483;48.622;9.230;2024-02-16T04:43:06;7.53;;;2.30;;
8893;SDS011;4483;48.622;9.230;2024-02-16T04:45:33;3.07;;;2.47;;
8893;SDS011;4483;48.622;9.230;2024-02-16T04:48:02;2.60;;;2.40;;
8893;SDS011;4483;48.622;9.230;2024-02-16T04:50:30;3.13;;;2.47;;
8893;SDS011;4483;48.622;9.230;2024-02-16T04:52:56;5.67;;;2.67;;
8893;SDS011;4483;48.622;9.230;2024-02-16T04:55:23;7.10;;;2.57;;
8893;SDS011;4483;48.622;9.230;2024-02-16T04:57:51;6.10;;;3.00;;
8893;SDS011;4483;48.622;9.230;2024-02-16T05:00:18;4.43;;;2.70;;
8893;SDS011;4483;48.622;9.230;2024-02-16T05:02:45;2.83;;;2.60;;
8893;SDS011;4483;48.622;9.230;2024-02-16T05:05:12;7.13;;;3.00;;
8893;SDS011;4483;48.622;9.230;2024-02-16T05:07:40;4.27;;;3.20;;
8893;SDS011;4483;48.622;9.230;2024-02-16T05:10:08;6.87;;;3.20;;
8893;SDS011;4483;48.622;9.230;2024-02-16T05:12:36;3.47;;;2.37;;
8893;SDS011;4483;48.622;9.230;2024-02-16T05:15:05;4.60;;;3.00;;
8893;SDS011;4483;48.622;9.230;2024-02-16T05:17:32;4.43;;;2.90;;
8893;SDS011;4483;48.622;9.230;2024-02-16T05:19:58;6.00;;;3.37;;
8893;SDS011;4483;48.622;9.230;2024-02-16T05:22:25;5.47;;;3.10;;
8893;SDS011;4483;48.622;9.230;2024-02-16T05:24:51;7.80;;;3.03;;
8893;SDS011;4483;48.622;9.230;2024-02-16T05:27:18;3.03;;;2.73;;
8893;SDS011;4483;48.622;9.230;2024-02-16T05:29:45;8.07;;;3.63;;
8893;SDS011;4483;48.622;9.230;2024-02-16T05:32:13;3.57;;;2.90;;
8893;SDS011;4483;48.622;9.230;2024-02-16T05:34:39;7.30;;;3.50;;
8893;SDS011;4483;48.622;9.230;2024-02-16T05:37:07;5.47;;;3.37;;
8893;SDS011;4483;48.622;9.230;2024-02-16T05:39:35;5.57;;;3.37;;
8893;SDS011;4483;48.622;9.230;2024-02-16T05:42:18;5.77;;;3.50;;
8893;SDS011;4483;48.622;9.230;2024-02-16T05:44:46;4.57;;;3.10;;
8893;SDS011;4483;48.622;9.230;2024-02-16T05:47:14;6.00;;;3.90;;
8893;SDS011;4483;48.622;9.230;2024-02-16T05:49:41;6.00;;;3.70;;
8893;SDS011;4483;48.622;9.230;2024-02-16T05:52:08;5.77;;;3.57;;
8893;SDS011;4483;48.622;9.230;2024-02-16T05:54:43;7.00;;;3.93;;
8893;SDS011;4483;48.622;9.230;2024-02-16T05:57:10;5.27;;;3.10;;
8893;SDS011;4483;48.622;9.230;2024-02-16T05:59:37;7.33;;;3.50;;
8893;SDS011;4483;48.622;9.230;2024-02-16T06:02:04;4.43;;;3.47;;
8893;SDS011;4483;48.622;9.230;2024-02-16T06:04:33;5.33;;;3.83;;
8893;SDS011;4483;48.622;9.230;2024-02-16T06:07:00;5.60;;;3.63;;
8893;SDS011;4483;48.622;9.230;2024-02-16T06:09:26;7.77;;;3.73;;
8893;SDS011;4483;48.622;9.230;2024-02-16T06:11:59;8.03;;;2.90;;
8893;SDS011;4483;48.622;9.230;2024-02-16T06:14:28;4.40;;;3.30;;
8893;SDS011;4483;48.622;9.230;2024-02-16T06:16:55;3.90;;;3.00;;
8893;SDS011;4483;48.622;9.230;2024-02-16T06:19:22;5.43;;;3.47;;
8893;SDS011;4483;48.622;9.230;2024-02-16T06:21:50;7.50;;;3.90;;
8893;SDS011;4483;48.622;9.230;2024-02-16T06:24:16;10.47;;;4.07;;
8893;SDS011;4483;48.622;9.230;2024-02-16T06:26:44;10.40;;;4.10;;
8893;SDS011;4483;48.622;9.230;2024-02-16T06:29:10;5.73;;;3.60;;
8893;SDS011;4483;48.622;9.230;2024-02-16T06:31:37;5.43;;;4.07;;
8893;SDS011;4483;48.622;9.230;2024-02-16T06:34:03;5.43;;;3.70;;
8893;SDS011;4483;48.622;9.230;2024-02-16T06:36:30;6.27;;;3.47;;
8893;SDS011;4483;48.622;9.230;2024-02-16T06:38:58;5.53;;;3.00;;
8893;SDS011;4483;48.622;9.230;2024-02-16T06:41:25;4.10;;;2.87;;
8893;SDS011;4483;48.622;9.230;2024-02-16T06:43:51;4.60;;;3.07;;
8893;SDS011;4483;48.622;9.230;2024-02-16T06:46:18;7.27;;;3.40;;
8893;SDS011;4483;48.622;9.230;2024-02-16T06:48:45;5.07;;;2.53;;
8893;SDS011;4483;48.622;9.230;2024-02-16T06:51:11;13.93;;;3.37;;
8893;SDS011;4483;48.622;9.230;2024-02-16T06:53:38;4.07;;;2.83;;
8893;SDS011;4483;48.622;9.230;2024-02-16T06:56:07;4.50;;;3.20;;
8893;SDS011;4483;48.622;9.230;2024-02-16T06:58:34;4.03;;;3.17;;
8893;SDS011;4483;48.622;9.230;2024-02-16T07:01:01;4.10;;;3.10;;
8893;SDS011;4483;48.622;9.230;2024-02-16T07:03:28;6.67;;;3.60;;
8893;SDS011;4483;48.622;9.230;2024-02-16T07:05:55;5.83;;;3.97;;
8893;SDS011;4483;48.622;9.230;2024-02-16T07:08:22;5.37;;;4.00;;
8893;SDS011;4483;48.622;9.230;2024-02-16T07:10:49;6.82;;;4.32;;
8893;SDS011;4483;48.622;9.230;2024-02-16T07:13:18;4.37;;;3.50;;
8893;SDS011;4483;48.622;9.230;2024-02-16T07:15:45;7.87;;;3.50;;
8893;SDS011;4483;48.622;9.230;2024-02-16T07:18:11;4.47;;;3.30;;
8893;SDS011;4483;48.622;9.230;2024-02-16T07:20:39;5.87;;;3.43;;
8893;SDS011;4483;48.622;9.230;2024-02-16T07:23:06;7.23;;;3.30;;
8893;SDS011;4483;48.622;9.230;2024-02-16T07:25:34;3.67;;;2.90;;
8893;SDS011;4483;48.622;9.230;2024-02-16T07:28:01;8.27;;;4.07;;
8893;SDS011;4483;48.622;9.230;2024-02-16T07:30:29;17.97;;;7.10;;
8893;SDS011;4483;48.622;9.230;2024-02-16T07:32:56;28.30;;;11.27;;
8893;SDS011;4483;48.622;9.230;2024-02-16T07:35:22;29.57;;;10.53;;
8893;SDS011;4483;48.622;9.230;2024-02-16T07:37:49;20.50;;;9.00;;
8893;SDS011;4483;48.622;9.230;2024-02-16T07:40:17;22.60;;;8.97;;
8893;SDS011;4483;48.622;9.230;2024-02-16T07:42:45;24.13;;;8.33;;
8893;SDS011;4483;48.622;9.230;2024-02-16T07:45:11;15.73;;;7.87;;
8893;SDS011;4483;48.622;9.230;2024-02-16T07:47:40;10.20;;;4.93;;
8893;SDS011;4483;48.622;9.230;2024-02-16T07:50:07;10.90;;;3.97;;
8893;SDS011;4483;48.622;9.230;2024-02-16T07:52:34;6.73;;;3.60;;
8893;SDS011;4483;48.622;9.230;2024-02-16T07:55:01;6.93;;;4.03;;
8893;SDS011;4483;48.622;9.230;2024-02-16T07:57:27;8.53;;;3.57;;
8893;SDS011;4483;48.622;9.230;2024-02-16T07:59:55;4.43;;;3.67;;
8893;SDS011;4483;48.622;9.230;2024-02-16T08:02:22;8.37;;;3.60;;
8893;SDS011;4483;48.622;9.230;2024-02-16T08:04:50;5.03;;;3.83;;
8893;SDS011;4483;48.622;9.230;2024-02-16T08:07:17;5.53;;;3.30;;
8893;SDS011;4483;48.622;9.230;2024-02-16T08:09:44;3.93;;;3.33;;
8893;SDS011;4483;48.622;9.230;2024-02-16T08:12:11;7.47;;;3.70;;
8893;SDS011;4483;48.622;9.230;2024-02-16T08:14:37;5.10;;;4.23;;
8893;SDS011;4483;48.622;9.230;2024-02-16T08:17:04;5.33;;;3.73;;
8893;SDS011;4483;48.622;9.230;2024-02-16T08:19:32;4.40;;;3.50;;
8893;SDS011;4483;48.622;9.230;2024-02-16T08:22:01;3.63;;;3.13;;
8893;SDS011;4483;48.622;9.230;2024-02-16T08:24:29;6.57;;;3.47;;
8893;SDS011;4483;48.622;9.230;2024-02-16T08:26:56;4.53;;;3.40;;
8893;SDS011;4483;48.622;9.230;2024-02-16T08:29:22;6.03;;;3.13;;
8893;SDS011;4483;48.622;9.230;2024-02-16T08:31:50;7.57;;;4.00;;
8893;SDS011;4483;48.622;9.230;2024-02-16T08:34:17;4.83;;;4.03;;
8893;SDS011;4483;48.622;9.230;2024-02-16T08:36:44;4.10;;;3.10;;
8893;SDS011;4483;48.622;9.230;2024-02-16T08:39:12;4.33;;;3.73;;
8893;SDS011;4483;48.622;9.230;2024-02-16T08:41:39;4.70;;;3.60;;
8893;SDS011;4483;48.622;9.230;2024-02-16T08:44:06;4.57;;;3.60;;
8893;SDS011;4483;48.622;9.230;2024-02-16T08:46:34;5.20;;;3.37;;
8893;SDS011;4483;48.622;9.230;2024-02-16T08:49:01;4.70;;;3.67;;
8893;SDS011;4483;48.622;9.230;2024-02-16T08:51:28;6.77;;;3.90;;
8893;SDS011;4483;48.622;9.230;2024-02-16T08:53:54;2.90;;;2.57;;
8893;SDS011;4483;48.622;9.230;2024-02-16T08:56:22;3.60;;;2.17;;
8893;SDS011;4483;48.622;9.230;2024-02-16T08:58:49;2.50;;;2.30;;
8893;SDS011;4483;48.622;9.230;2024-02-16T09:01:16;3.05;;;2.55;;
8893;SDS011;4483;48.622;9.230;2024-02-16T09:03:42;3.00;;;2.40;;
8893;SDS011;4483;48.622;9.230;2024-02-16T09:06:10;4.70;;;2.30;;
8893;SDS011;4483;48.622;9.230;2024-02-16T09:08:38;2.15;;;1.95;;
8893;SDS011;4483;48.622;9.230;2024-02-16T09:11:05;2.95;;;2.50;;
8893;SDS011;4483;48.622;9.230;2024-02-16T09:13:33;1.95;;;1.85;;
8893;SDS011;4483;48.622;9.230;2024-02-16T09:16:00;3.63;;;2.10;;
8893;SDS011;4483;48.622;9.230;2024-02-16T09:18:28;1.85;;;1.75;;
8893;SDS011;4483;48.622;9.230;2024-02-16T09:20:55;3.13;;;1.98;;
8893;SDS011;4483;48.622;9.230;2024-02-16T09:23:21;4.22;;;1.98;;
8893;SDS011;4483;48.622;9.230;2024-02-16T09:25:48;2.25;;;1.92;;
8893;SDS011;4483;48.622;9.230;2024-02-16T09:28:16;2.25;;;2.10;;
8893;SDS011;4483;48.622;9.230;2024-02-16T09:30:45;2.97;;;2.10;;
8893;SDS011;4483;48.622;9.230;2024-02-16T09:33:12;2.25;;;2.00;;
8893;SDS011;4483;48.622;9.230;2024-02-16T09:35:39;4.63;;;2.15;;
8893;SDS011;4483;48.622;9.230;2024-02-16T09:38:05;4.15;;;2.20;;
8893;SDS011;4483;48.622;9.230;2024-02-16T09:40:35;1.90;;;1.80;;
8893;SDS011;4483;48.622;9.230;2024-02-16T09:43:02;2.20;;;2.00;;
8893;SDS011;4483;48.622;9.230;2024-02-16T09:45:29;2.75;;;1.90;;
8893;SDS011;4483;48.622;9.230;2024-02-16T09:47:58;2.10;;;1.90;;
8893;SDS011;4483;48.622;9.230;2024-02-16T09:50:25;2.35;;;2.00;;
8893;SDS011;4483;48.622;9.230;2024-02-16T09:52:52;1.85;;;1.75;;
8893;SDS011;4483;48.622;9.230;2024-02-16T09:55:20;4.13;;;2.28;;
8893;SDS011;4483;48.622;9.230;2024-02-16T09:57:47;2.45;;;1.83;;
8893;SDS011;4483;48.622;9.230;2024-02-16T10:00:24;1.98;;;1.88;;
8893;SDS011;4483;48.622;9.230;2024-02-16T10:02:50;2.17;;;1.98;;
8893;SDS011;4483;48.622;9.230;2024-02-16T10:05:19;1.92;;;1.83;;
8893;SDS011;4483;48.622;9.230;2024-02-16T10:07:47;2.55;;;2.03;;
8893;SDS011;4483;48.622;9.230;2024-02-16T10:10:20;2.72;;;2.20;;
8893;SDS011;4483;48.622;9.230;2024-02-16T10:12:48;4.40;;;2.08;;
8893;SDS011;4483;48.622;9.230;2024-02-16T10:15:19;2.45;;;2.00;;
8893;SDS011;4483;48.622;9.230;2024-02-16T10:17:56;4.03;;;1.80;;
8893;SDS011;4483;48.622;9.230;2024-02-16T10:20:25;2.17;;;1.95;;
8893;SDS011;4483;48.622;9.230;2024-02-16T10:23:01;3.60;;;1.83;;
8893;SDS011;4483;48.622;9.230;2024-02-16T10:25:29;1.88;;;1.65;;
8893;SDS011;4483;48.622;9.230;2024-02-16T10:27:55;2.00;;;1.83;;
8893;SDS011;4483;48.622;9.230;2024-02-16T10:30:23;3.35;;;2.08;;
8893;SDS011;4483;48.622;9.230;2024-02-16T10:32:55;2.90;;;1.60;;
8893;SDS011;4483;48.622;9.230;2024-02-16T10:35:25;1.90;;;1.80;;
8893;SDS011;4483;48.622;9.230;2024-02-16T10:37:54;1.95;;;1.80;;
8893;SDS011;4483;48.622;9.230;2024-02-16T10:40:23;3.03;;;2.47;;
8893;SDS011;4483;48.622;9.230;2024-02-16T10:42:50;3.42;;;2.20;;
8893;SDS011;4483;48.622;9.230;2024-02-16T10:45:17;2.85;;;1.73;;
8893;SDS011;4483;48.622;9.230;2024-02-16T10:47:44;2.45;;;1.70;;
8893;SDS011;4483;48.622;9.230;2024-02-16T10:50:11;2.08;;;1.60;;
8893;SDS011;4483;48.622;9.230;2024-02-16T10:52:41;2.70;;;1.52;;
8893;SDS011;4483;48.622;9.230;2024-02-16T10:55:11;3.20;;;1.65;;
8893;SDS011;4483;48.622;9.230;2024-02-16T10:57:40;1.85;;;1.40;;
8893;SDS011;4483;48.622;9.230;2024-02-16T11:00:08;2.45;;;1.67;;
8893;SDS011;4483;48.622;9.230;2024-02-16T11:02:50;4.82;;;1.50;;
8893;SDS011;4483;48.622;9.230;2024-02-16T11:05:20;3.40;;;1.35;;
8893;SDS011;4483;48.622;9.230;2024-02-16T11:08:01;1.83;;;1.67;;
8893;SDS011;4483;48.622;9.230;2024-02-16T11:10:28;2.25;;;1.60;;
8893;SDS011;4483;48.622;9.230;2024-02-16T11:12:59;1.50;;;1.40;;
8893;SDS011;4483;48.622;9.230;2024-02-16T11:15:27;2.35;;;1.60;;
8893;SDS011;4483;48.622;9.230;2024-02-16T11:17:55;1.45;;;1.35;;
8893;SDS011;4483;48.622;9.230;2024-02-16T11:20:23;1.75;;;1.63;;
8893;SDS011;4483;48.622;9.230;2024-02-16T11:22:51;1.75;;;1.63;;
8893;SDS011;4483;48.622;9.230;2024-02-16T11:25:19;3.20;;;1.63;;
8893;SDS011;4483;48.622;9.230;2024-02-16T11:27:56;2.08;;;1.60;;
8893;SDS011;4483;48.622;9.230;2024-02-16T11:30:24;2.28;;;1.60;;
8893;SDS011;4483;48.622;9.230;2024-02-16T11:32:50;1.77;;;1.48;;
8893;SDS011;4483;48.622;9.230;2024-02-16T11:35:17;3.13;;;1.67;;
8893;SDS011;4483;48.622;9.230;2024-02-16T11:37:44;1.73;;;1.50;;
8893;SDS011;4483;48.622;9.230;2024-02-16T11:40:12;3.03;;;1.55;;
8893;SDS011;4483;48.622;9.230;2024-02-16T11:42:40;1.77;;;1.60;;
8893;SDS011;4483;48.622;9.230;2024-02-16T11:45:09;1.63;;;1.50;;
8893;SDS011;4483;48.622;9.230;2024-02-16T11:47:37;2.88;;;1.65;;
8893;SDS011;4483;48.622;9.230;2024-02-16T11:50:04;3.58;;;1.95;;
8893;SDS011;4483;48.622;9.230;2024-02-16T11:52:36;2.97;;;1.48;;
8893;SDS011;4483;48.622;9.230;2024-02-16T11:55:03;2.45;;;1.42;;
8893;SDS011;4483;48.622;9.230;2024-02-16T11:57:30;2.17;;;1.73;;
8893;SDS011;4483;48.622;9.230;2024-02-16T11:59:59;2.30;;;1.50;;
8893;SDS011;4483;48.622;9.230;2024-02-16T12:02:29;2.13;;;1.80;;
8893;SDS011;4483;48.622;9.230;2024-02-16T12:04:58;1.48;;;1.38;;
8893;SDS011;4483;48.622;9.230;2024-02-16T12:07:25;4.10;;;1.83;;
8893;SDS011;4483;48.622;9.230;2024-02-16T12:09:56;3.85;;;2.30;;
8893;SDS011;4483;48.622;9.230;2024-02-16T12:12:24;3.00;;;1.90;;
8893;SDS011;4483;48.622;9.230;2024-02-16T12:14:51;2.72;;;1.70;;
8893;SDS011;4483;48.622;9.230;2024-02-16T12:17:20;4.03;;;1.40;;
8893;SDS011;4483;48.622;9.230;2024-02-16T12:19:47;2.15;;;1.70;;
8893;SDS011;4483;48.622;9.230;2024-02-16T12:22:16;2.40;;;2.00;;
8893;SDS011;4483;48.622;9.230;2024-02-16T12:24:43;5.75;;;1.60;;
8893;SDS011;4483;48.622;9.230;2024-02-16T12:27:10;1.88;;;1.70;;
8893;SDS011;4483;48.622;9.230;2024-02-16T12:29:37;3.25;;;1.98;;
8893;SDS011;4483;48.622;9.230;2024-02-16T12:32:05;4.38;;;2.08;;
8893;SDS011;4483;48.622;9.230;2024-02-16T12:34:33;2.00;;;1.90;;
8893;SDS011;4483;48.622;9.230;2024-02-16T12:37:00;2.22;;;2.03;;
8893;SDS011;4483;48.622;9.230;2024-02-16T12:39:26;2.08;;;1.98;;
8893;SDS011;4483;48.622;9.230;2024-02-16T12:41:53;2.88;;;1.65;;
8893;SDS011;4483;48.622;9.230;2024-02-16T12:44:20;2.17;;;1.98;;
8893;SDS011;4483;48.622;9.230;2024-02-16T12:46:46;2.60;;;1.92;;
8893;SDS011;4483;48.622;9.230;2024-02-16T12:49:13;5.38;;;2.05;;
8893;SDS011;4483;48.622;9.230;2024-02-16T12:51:42;2.08;;;1.83;;
8893;SDS011;4483;48.622;9.230;2024-02-16T12:54:09;2.33;;;1.80;;
8893;SDS011;4483;48.622;9.230;2024-02-16T12:56:39;4.20;;;1.50;;
8893;SDS011;4483;48.622;9.230;2024-02-16T12:59:06;2.72;;;1.55;;
8893;SDS011;4483;48.622;9.230;2024-02-16T13:01:32;3.03;;;1.98;;
8893;SDS011;4483;48.622;9.230;2024-02-16T13:03:59;3.25;;;2.13;;
8893;SDS011;4483;48.622;9.230;2024-02-16T13:06:26;4.25;;;1.70;;
8893;SDS011;4483;48.622;9.230;2024-02-16T13:08:54;2.65;;;2.00;;
8893;SDS011;4483;48.622;9.230;2024-02-16T13:11:20;2.97;;;1.70;;
8893;SDS011;4483;48.622;9.230;2024-02-16T13:13:47;6.50;;;1.73;;
8893;SDS011;4483;48.622;9.230;2024-02-16T13:16:14;4.38;;;2.20;;
8893;SDS011;4483;48.622;9.230;2024-02-16T13:18:40;2.28;;;1.65;;
8893;SDS011;4483;48.622;9.230;2024-02-16T13:21:07;2.08;;;1.88;;
8893;SDS011;4483;48.622;9.230;2024-02-16T13:23:34;3.53;;;1.70;;
8893;SDS011;4483;48.622;9.230;2024-02-16T13:26:02;5.05;;;2.20;;
8893;SDS011;4483;48.622;9.230;2024-02-16T13:28:29;2.45;;;1.90;;
8893;SDS011;4483;48.622;9.230;2024-02-16T13:30:56;3.95;;;2.10;;
8893;SDS011;4483;48.622;9.230;2024-02-16T13:33:23;1.75;;;1.65;;
8893;SDS011;4483;48.622;9.230;2024-02-16T13:35:49;5.10;;;1.73;;
8893;SDS011;4483;48.622;9.230;2024-02-16T13:38:16;3.92;;;1.83;;
8893;SDS011;4483;48.622;9.230;2024-02-16T13:40:43;3.10;;;1.98;;
8893;SDS011;4483;48.622;9.230;2024-02-16T13:43:11;1.70;;;1.60;;
8893;SDS011;4483;48.622;9.230;2024-02-16T13:45:47;2.25;;;1.50;;
8893;SDS011;4483;48.622;9.230;2024-02-16T13:48:15;2.47;;;1.70;;
8893;SDS011;4483;48.622;9.230;2024-02-16T13:50:43;2.08;;;1.77;;
8893;SDS011;4483;48.622;9.230;2024-02-16T13:53:11;3.00;;;1.92;;
8893;SDS011;4483;48.622;9.230;2024-02-16T13:55:38;5.18;;;2.08;;
8893;SDS011;4483;48.622;9.230;2024-02-16T13:58:05;1.80;;;1.70;;
8893;SDS011;4483;48.622;9.230;2024-02-16T14:00:33;1.80;;;1.70;;
8893;SDS011;4483;48.622;9.230;2024-02-16T14:02:59;3.20;;;2.00;;
8893;SDS011;4483;48.622;9.230;2024-02-16T14:05:26;2.72;;;1.58;;
8893;SDS011;4483;48.622;9.230;2024-02-16T14:07:53;3.17;;;1.73;;
8893;SDS011;4483;48.622;9.230;2024-02-16T14:10:19;4.55;;;1.70;;
8893;SDS011;4483;48.622;9.230;2024-02-16T14:12:46;2.13;;;1.77;;
8893;SDS011;4483;48.622;9.230;2024-02-16T14:15:13;3.22;;;1.90;;
8893;SDS011;4483;48.622;9.230;2024-02-16T14:17:42;4.03;;;1.95;;
8893;SDS011;4483;48.622;9.230;2024-02-16T14:20:09;5.80;;;2.25;;
8893;SDS011;4483;48.622;9.230;2024-02-16T14:22:36;1.85;;;1.50;;
8893;SDS011;4483;48.622;9.230;2024-02-16T14:25:03;2.97;;;1.63;;
8893;SDS011;4483;48.622;9.230;2024-02-16T14:27:30;2.83;;;1.92;;
8893;SDS011;4483;48.622;9.230;2024-02-16T14:29:57;3.38;;;2.00;;
8893;SDS011;4483;48.622;9.230;2024-02-16T14:32:24;4.43;;;1.90;;
8893;SDS011;4483;48.622;9.230;2024-02-16T14:34:52;3.72;;;1.90;;
8893;SDS011;4483;48.622;9.230;2024-02-16T14:37:19;5.00;;;1.95;;
8893;SDS011;4483;48.622;9.230;2024-02-16T14:39:45;4.35;;;2.10;;
8893;SDS011;4483;48.622;9.230;2024-02-16T14:42:12;2.10;;;1.80;;
8893;SDS011;4483;48.622;9.230;2024-02-16T14:44:39;10.15;;;2.30;;
8893;SDS011;4483;48.622;9.230;2024-02-16T14:47:06;3.25;;;2.03;;
8893;SDS011;4483;48.622;9.230;2024-02-16T14:49:33;2.42;;;2.22;;
8893;SDS011;4483;48.622;9.230;2024-02-16T14:52:01;3.50;;;1.98;;
8893;SDS011;4483;48.622;9.230;2024-02-16T14:54:27;3.78;;;2.13;;
8893;SDS011;4483;48.622;9.230;2024-02-16T14:56:54;3.03;;;2.10;;
8893;SDS011;4483;48.622;9.230;2024-02-16T14:59:21;4.57;;;2.00;;
8893;SDS011;4483;48.622;9.230;2024-02-16T15:01:49;7.15;;;2.08;;
8893;SDS011;4483;48.622;9.230;2024-02-16T15:04:17;5.07;;;2.17;;
8893;SDS011;4483;48.622;9.230;2024-02-16T15:06:43;6.53;;;2.20;;
8893;SDS011;4483;48.622;9.230;2024-02-16T15:09:11;6.65;;;1.85;;
8893;SDS011;4483;48.622;9.230;2024-02-16T15:11:38;5.40;;;2.05;;
8893;SDS011;4483;48.622;9.230;2024-02-16T15:14:05;5.32;;;2.45;;
8893;SDS011;4483;48.622;9.230;2024-02-16T15:16:31;2.45;;;2.25;;